createdAt,value
2023-01-29T00:00:14.516Z,100136.63
2023-01-29T00:02:43.508Z,100138.59
2023-01-29T00:05:27.049Z,100141.09
2023-01-29T00:07:58.277Z,100141.91
2023-01-29T00:10:27.080Z,100146.25
2023-01-29T00:12:55.988Z,100146.69
2023-01-29T00:15:24.654Z,100137.00
2023-01-29T00:17:53.324Z,100138.50
2023-01-29T00:20:22.025Z,100144.84
2023-01-29T00:22:50.678Z,100150.22
2023-01-29T00:25:20.651Z,100149.16
2023-01-29T00:27:49.280Z,100148.34
2023-01-29T00:30:19.769Z,100147.66
2023-01-29T00:32:48.793Z,100143.44
2023-01-29T00:35:17.586Z,100135.97
2023-01-29T00:37:46.304Z,100137.69
2023-01-29T00:40:15.423Z,100135.00
2023-01-29T00:43:04.475Z,100136.28
2023-01-29T00:45:33.186Z,100134.88
2023-01-29T00:48:01.809Z,100138.53
2023-01-29T00:50:30.808Z,100140.16
2023-01-29T00:52:59.647Z,100135.25
2023-01-29T00:55:28.390Z,100138.66
2023-01-29T00:57:58.380Z,100142.03
2023-01-29T01:00:26.983Z,100151.41
2023-01-29T01:03:06.844Z,100131.97
2023-01-29T01:05:36.821Z,100133.72
2023-01-29T01:08:26.565Z,100132.22
2023-01-29T01:11:02.353Z,100134.66
2023-01-29T01:13:32.574Z,100133.97
2023-01-29T01:16:01.398Z,100130.22
2023-01-29T01:18:30.751Z,100136.16
2023-01-29T01:20:59.769Z,100136.16
2023-01-29T01:23:28.580Z,100134.88
2023-01-29T01:25:57.376Z,100140.28
2023-01-29T01:28:26.236Z,100131.38
2023-01-29T01:30:56.333Z,100126.22
2023-01-29T01:33:24.988Z,100127.63
2023-01-29T01:35:53.609Z,100128.09
2023-01-29T01:38:22.244Z,100132.66
2023-01-29T01:40:50.849Z,100125.53
2023-01-29T01:43:19.532Z,100126.47
2023-01-29T01:45:48.454Z,100134.31
2023-01-29T01:48:21.330Z,100140.16
2023-01-29T01:50:52.178Z,100122.84
2023-01-29T01:53:23.821Z,100120.25
2023-01-29T01:55:55.991Z,100115.47
2023-01-29T01:58:26.716Z,100117.22
2023-01-29T02:00:56.066Z,100118.25
2023-01-29T02:03:44.961Z,100124.25
2023-01-29T02:06:31.396Z,100129.72
2023-01-29T02:09:20.946Z,100124.94
2023-01-29T02:11:49.563Z,100124.38
2023-01-29T02:14:18.221Z,100129.97
2023-01-29T02:16:46.886Z,100132.56
2023-01-29T02:19:20.152Z,100142.97
2023-01-29T02:22:25.813Z,100145.31
2023-01-29T02:25:14.410Z,100140.50
2023-01-29T02:28:08.457Z,100137.13
2023-01-29T02:30:42.095Z,100139.94
2023-01-29T02:33:17.549Z,100133.50
2023-01-29T02:35:47.890Z,100134.69
2023-01-29T02:38:21.348Z,100142.28
2023-01-29T02:40:52.901Z,100140.63
2023-01-29T02:43:31.393Z,100146.50
2023-01-29T02:46:08.352Z,100143.94
2023-01-29T02:48:41.839Z,100142.41
2023-01-29T02:51:15.545Z,100141.69
2023-01-29T02:53:50.682Z,100145.78
2023-01-29T02:56:22.831Z,100135.38
2023-01-29T02:58:54.147Z,100140.63
2023-01-29T03:01:30.179Z,100137.00
2023-01-29T03:04:01.734Z,100140.50
2023-01-29T03:06:33.745Z,100129.97
2023-01-29T03:09:05.599Z,100131.88
2023-01-29T03:11:38.250Z,100130.56
2023-01-29T03:14:10.406Z,100129.66
2023-01-29T03:16:41.801Z,100134.09
2023-01-29T03:19:13.252Z,100138.78
2023-01-29T03:21:59.210Z,100129.66
2023-01-29T03:24:52.667Z,100129.28
2023-01-29T03:27:42.391Z,100126.84
2023-01-29T03:30:31.707Z,100131.06
2023-01-29T03:33:04.923Z,100128.25
2023-01-29T03:35:37.549Z,100131.19
2023-01-29T03:38:09.864Z,100126.72
2023-01-29T03:40:46.779Z,100129.16
2023-01-29T03:43:22.832Z,100128.47
2023-01-29T03:45:59.128Z,100128.38
2023-01-29T03:48:33.951Z,100139.47
2023-01-29T03:51:13.203Z,100133.03
2023-01-29T03:53:44.191Z,100132.66
2023-01-29T03:56:22.383Z,100130.22
2023-01-29T03:58:56.100Z,100136.09
2023-01-29T04:01:27.280Z,100133.75
2023-01-29T04:04:00.296Z,100129.88
2023-01-29T04:06:31.758Z,100137.69
2023-01-29T04:09:04.528Z,100144.59
2023-01-29T04:11:34.467Z,100138.53
2023-01-29T04:14:03.137Z,100142.16
2023-01-29T04:16:36.032Z,100143.19
2023-01-29T04:19:06.517Z,100146.13
2023-01-29T04:21:37.468Z,100136.19
2023-01-29T04:24:07.706Z,100133.84
2023-01-29T04:26:50.189Z,100132.34
2023-01-29T04:29:30.326Z,100141.34
2023-01-29T04:32:07.559Z,100142.03
2023-01-29T04:34:44.593Z,100140.41
2023-01-29T04:37:16.975Z,100143.19
2023-01-29T04:39:49.214Z,100138.06
2023-01-29T04:42:24.135Z,100139.59
2023-01-29T04:45:00.833Z,100139.81
2023-01-29T04:47:35.405Z,100132.66
2023-01-29T04:50:14.902Z,100137.13
2023-01-29T04:52:49.098Z,100126.84
2023-01-29T04:55:22.471Z,100123.22
2023-01-29T04:57:54.242Z,100122.97
2023-01-29T05:00:27.245Z,100125.78
2023-01-29T05:02:57.176Z,100135.25
2023-01-29T05:05:27.502Z,100141.78
2023-01-29T05:07:58.426Z,100131.38
2023-01-29T05:10:27.581Z,100135.03
2023-01-29T05:12:59.829Z,100136.66
2023-01-29T05:15:32.553Z,100141.00
2023-01-29T05:18:02.826Z,100142.03
2023-01-29T05:20:34.473Z,100137.59
2023-01-29T05:23:03.259Z,100144.72
2023-01-29T05:25:34.016Z,100140.19
2023-01-29T05:28:04.720Z,100129.75
2023-01-29T05:30:35.133Z,100133.38
2023-01-29T05:33:04.489Z,100153.03
2023-01-29T05:35:34.820Z,100152.09
2023-01-29T05:38:04.135Z,100154.66
2023-01-29T05:40:32.936Z,100143.78
2023-01-29T05:43:01.633Z,100142.63
2023-01-29T05:45:30.224Z,100142.03
2023-01-29T05:47:59.354Z,100144.59
2023-01-29T05:50:28.734Z,100134.66
2023-01-29T05:52:59.641Z,100146.69
2023-01-29T05:55:29.367Z,100137.81
2023-01-29T05:57:57.978Z,100112.44
2023-01-29T06:00:26.878Z,100102.72
2023-01-29T06:02:56.532Z,100102.50
2023-01-29T06:05:25.164Z,100097.13
2023-01-29T06:07:53.805Z,100088.59
2023-01-29T06:10:23.787Z,100086.81
2023-01-29T06:12:52.402Z,100098.63
2023-01-29T06:15:21.173Z,100103.78
2023-01-29T06:17:49.737Z,100105.31
2023-01-29T06:20:18.886Z,100112.66
2023-01-29T06:22:47.742Z,100106.47
2023-01-29T06:25:16.551Z,100114.19
2023-01-29T06:27:46.555Z,100116.66
2023-01-29T06:30:16.175Z,100121.69
2023-01-29T06:32:44.886Z,100118.41
2023-01-29T06:35:13.498Z,100126.13
2023-01-29T06:37:42.196Z,100128.91
2023-01-29T06:40:11.949Z,100129.50
2023-01-29T06:42:40.584Z,100129.16
2023-01-29T06:45:11.884Z,100137.81
2023-01-29T06:47:40.567Z,100142.75
2023-01-29T06:50:10.321Z,100141.09
2023-01-29T06:52:38.998Z,100144.81
2023-01-29T06:55:08.494Z,100136.06
2023-01-29T06:57:37.138Z,100131.59
2023-01-29T07:00:06.847Z,100127.41
2023-01-29T07:02:36.787Z,100136.88
2023-01-29T07:05:05.994Z,100138.53
2023-01-29T07:07:36.669Z,100141.66
2023-01-29T07:10:06.007Z,100148.09
2023-01-29T07:12:34.643Z,100159.47
2023-01-29T07:15:03.631Z,100139.69
2023-01-29T07:17:32.267Z,100148.69
2023-01-29T07:20:02.277Z,100144.47
2023-01-29T07:22:30.850Z,100141.78
2023-01-29T07:24:59.443Z,100142.38
2023-01-29T07:27:28.641Z,100145.75
2023-01-29T07:29:57.215Z,100146.91
2023-01-29T07:32:25.846Z,100159.09
2023-01-29T07:34:54.400Z,100151.84
2023-01-29T07:37:24.387Z,100158.38
2023-01-29T07:39:52.970Z,100164.72
2023-01-29T07:42:21.609Z,100168.94
2023-01-29T07:44:50.172Z,100163.75
2023-01-29T07:47:18.814Z,100170.31
2023-01-29T07:49:47.429Z,100174.78
2023-01-29T07:52:16.062Z,100166.00
2023-01-29T07:54:46.016Z,100165.41
2023-01-29T07:57:14.821Z,100174.28
2023-01-29T07:59:43.579Z,100176.88
2023-01-29T08:02:12.223Z,100181.78
2023-01-29T08:04:40.980Z,100185.53
2023-01-29T08:07:09.834Z,100183.22
2023-01-29T08:09:38.385Z,100188.69
2023-01-29T08:12:08.527Z,100180.88
2023-01-29T08:14:37.178Z,100178.97
2023-01-29T08:17:05.773Z,100175.25
2023-01-29T08:19:34.417Z,100172.81
2023-01-29T08:22:03.043Z,100180.66
2023-01-29T08:24:41.779Z,100177.03
2023-01-29T08:27:21.739Z,100182.63
2023-01-29T08:29:50.394Z,100175.75
2023-01-29T08:32:18.964Z,100191.88
2023-01-29T08:34:47.654Z,100201.13
2023-01-29T08:37:16.202Z,100201.94
2023-01-29T08:39:44.820Z,100202.53
2023-01-29T08:42:13.447Z,100206.88
2023-01-29T08:44:43.371Z,100201.03
2023-01-29T08:47:12.181Z,100197.50
2023-01-29T08:49:40.792Z,100189.69
2023-01-29T08:52:09.395Z,100197.16
2023-01-29T08:54:37.990Z,100209.09
2023-01-29T08:57:06.950Z,100217.28
2023-01-29T08:59:35.767Z,100213.44
2023-01-29T09:02:05.756Z,100212.84
2023-01-29T09:04:34.359Z,100214.81
2023-01-29T09:07:02.972Z,100216.34
2023-01-29T09:09:31.526Z,100217.19
2023-01-29T09:12:00.171Z,100206.53
2023-01-29T09:14:28.997Z,100212.50
2023-01-29T09:16:57.932Z,100221.16
2023-01-29T09:19:27.909Z,100225.13
2023-01-29T09:21:56.544Z,100225.25
2023-01-29T09:24:25.192Z,100222.66
2023-01-29T09:26:53.854Z,100217.03
2023-01-29T09:29:22.437Z,100219.84
2023-01-29T09:31:51.108Z,100221.13
2023-01-29T09:34:19.783Z,100223.72
2023-01-29T09:36:49.774Z,100222.78
2023-01-29T09:39:18.356Z,100214.56
2023-01-29T09:41:53.250Z,100221.84
2023-01-29T09:44:29.435Z,100224.19
2023-01-29T09:47:00.121Z,100219.66
2023-01-29T09:49:31.462Z,100217.63
2023-01-29T09:52:04.033Z,100217.41
2023-01-29T09:54:35.114Z,100213.53
2023-01-29T09:57:03.734Z,100208.13
2023-01-29T09:59:33.193Z,100194.78
2023-01-29T10:02:09.119Z,100192.78
2023-01-29T10:04:52.862Z,100190.94
2023-01-29T10:07:48.698Z,100178.06
2023-01-29T10:10:29.454Z,100163.03
2023-01-29T10:13:04.250Z,100156.00
2023-01-29T10:15:41.817Z,100157.53
2023-01-29T10:18:37.034Z,100143.25
2023-01-29T10:21:14.636Z,100146.09
2023-01-29T10:23:48.065Z,100142.56
2023-01-29T10:26:18.474Z,100134.69
2023-01-29T10:28:50.620Z,100146.53
2023-01-29T10:31:24.467Z,100149.66
2023-01-29T10:34:03.188Z,100143.31
2023-01-29T10:36:37.017Z,100147.16
2023-01-29T10:39:07.129Z,100151.72
2023-01-29T10:41:49.957Z,100161.91
2023-01-29T10:44:26.089Z,100172.31
2023-01-29T10:47:06.523Z,100163.94
2023-01-29T10:49:58.947Z,100166.81
2023-01-29T10:52:36.370Z,100156.84
2023-01-29T10:55:17.478Z,100152.84
2023-01-29T10:57:59.664Z,100149.63
2023-01-29T11:00:31.089Z,100146.69
2023-01-29T11:03:26.291Z,100147.13
2023-01-29T11:06:02.680Z,100146.44
2023-01-29T11:08:35.876Z,100149.94
2023-01-29T11:11:09.645Z,100148.56
2023-01-29T11:13:42.587Z,100156.75
2023-01-29T11:16:11.662Z,100151.78
2023-01-29T11:18:51.908Z,100145.53
2023-01-29T11:21:20.613Z,100137.81
2023-01-29T11:23:49.418Z,100145.59
2023-01-29T11:26:22.343Z,100126.28
2023-01-29T11:28:52.072Z,100129.19
2023-01-29T11:31:23.400Z,100130.84
2023-01-29T11:33:53.803Z,100126.09
2023-01-29T11:36:32.710Z,100135.75
2023-01-29T11:39:11.748Z,100124.91
2023-01-29T11:41:46.624Z,100121.44
2023-01-29T11:44:23.182Z,100108.94
2023-01-29T11:46:51.872Z,100112.66
2023-01-29T11:49:25.880Z,100106.16
2023-01-29T11:51:56.581Z,100107.06
2023-01-29T11:54:29.775Z,100104.97
2023-01-29T11:56:59.926Z,100104.00
2023-01-29T11:59:34.886Z,100098.72
2023-01-29T12:02:13.359Z,100102.81
2023-01-29T12:04:42.084Z,100090.28
2023-01-29T12:07:14.596Z,100065.63
2023-01-29T12:09:51.519Z,100084.47
2023-01-29T12:12:33.896Z,100069.03
2023-01-29T12:15:17.283Z,100069.06
2023-01-29T12:17:52.684Z,100061.41
2023-01-29T12:20:26.739Z,100050.31
2023-01-29T12:23:02.872Z,100045.84
2023-01-29T12:25:40.387Z,100041.38
2023-01-29T12:28:22.489Z,100024.53
2023-01-29T12:30:59.788Z,100015.19
2023-01-29T12:33:32.987Z,100007.16
2023-01-29T12:36:06.669Z,100002.81
2023-01-29T12:38:37.067Z,99999.00
2023-01-29T12:41:09.498Z,99988.69
2023-01-29T12:43:42.416Z,99976.59
2023-01-29T12:46:23.850Z,99980.41
2023-01-29T12:48:54.153Z,99979.69
2023-01-29T12:51:25.399Z,99968.00
2023-01-29T12:53:57.582Z,99969.94
2023-01-29T12:56:29.832Z,99970.88
2023-01-29T12:59:01.693Z,99962.59
2023-01-29T13:01:34.567Z,99954.59
2023-01-29T13:04:06.316Z,99957.53
2023-01-29T13:06:41.541Z,99966.38
2023-01-29T13:09:15.327Z,99963.16
2023-01-29T13:11:49.971Z,99958.91
2023-01-29T13:14:23.410Z,99955.25
2023-01-29T13:16:54.420Z,99953.34
2023-01-29T13:19:26.863Z,99944.91
2023-01-29T13:21:56.359Z,99936.34
2023-01-29T13:24:26.135Z,99938.81
2023-01-29T13:26:54.908Z,99938.13
2023-01-29T13:29:26.400Z,99924.78
2023-01-29T13:31:57.034Z,99928.59
2023-01-29T13:34:28.382Z,99934.03
2023-01-29T13:36:58.448Z,99936.06
2023-01-29T13:39:29.724Z,99947.22
2023-01-29T13:41:59.723Z,99946.38
2023-01-29T13:44:32.716Z,99940.41
2023-01-29T13:47:03.033Z,99939.91
2023-01-29T13:49:36.219Z,99939.47
2023-01-29T13:52:17.256Z,99935.41
2023-01-29T13:54:52.297Z,99936.22
2023-01-29T13:57:49.841Z,99939.19
2023-01-29T14:01:01.377Z,99937.69
2023-01-29T14:04:05.723Z,99945.19
2023-01-29T14:06:49.420Z,99937.84
2023-01-29T14:09:54.508Z,99941.09
2023-01-29T14:12:34.861Z,99950.22
2023-01-29T14:15:21.435Z,99941.25
2023-01-29T14:18:18.289Z,99946.28
2023-01-29T14:21:00.588Z,99942.47
2023-01-29T14:23:41.528Z,99939.63
2023-01-29T14:26:25.904Z,99944.13
2023-01-29T14:28:58.839Z,99946.13
2023-01-29T14:31:32.646Z,99944.13
2023-01-29T14:34:02.258Z,99939.34
2023-01-29T14:36:40.512Z,99919.63
2023-01-29T14:39:21.456Z,99929.69
2023-01-29T14:41:51.449Z,99922.91
2023-01-29T14:44:48.904Z,99926.16
2023-01-29T14:47:21.706Z,99931.19
2023-01-29T14:49:52.324Z,99938.13
2023-01-29T14:52:24.433Z,99930.38
2023-01-29T14:54:54.332Z,99928.63
2023-01-29T14:57:23.867Z,99930.50
2023-01-29T14:59:57.357Z,99922.75
2023-01-29T15:02:33.167Z,99915.84
2023-01-29T15:05:04.529Z,99916.09
2023-01-29T15:07:39.898Z,99924.25
2023-01-29T15:10:23.675Z,99926.97
2023-01-29T15:12:56.917Z,99918.81
2023-01-29T15:15:33.941Z,99925.63
2023-01-29T15:18:04.874Z,99935.66
2023-01-29T15:20:35.096Z,99926.69
2023-01-29T15:23:06.114Z,99921.00
2023-01-29T15:25:37.355Z,99914.63
2023-01-29T15:28:10.135Z,99918.16
2023-01-29T15:30:39.050Z,99923.72
2023-01-29T15:33:11.427Z,99921.94
2023-01-29T15:35:41.851Z,99917.44
2023-01-29T15:38:18.310Z,99919.38
2023-01-29T15:40:53.802Z,99911.47
2023-01-29T15:43:23.944Z,99922.09
2023-01-29T15:45:53.339Z,99924.09
2023-01-29T15:48:32.928Z,99926.81
2023-01-29T15:51:04.740Z,99925.59
2023-01-29T15:53:37.586Z,99931.03
2023-01-29T15:56:09.203Z,99932.38
2023-01-29T15:58:37.886Z,99929.00
2023-01-29T16:01:07.099Z,99934.44
2023-01-29T16:03:36.147Z,99921.53
2023-01-29T16:06:07.123Z,99928.19
2023-01-29T16:08:37.449Z,99907.91
2023-01-29T16:11:07.633Z,99909.69
2023-01-29T16:13:38.118Z,99904.09
2023-01-29T16:16:20.689Z,99908.84
2023-01-29T16:18:59.915Z,99912.38
2023-01-29T16:21:31.775Z,99908.56
2023-01-29T16:24:03.840Z,99912.22
2023-01-29T16:26:35.164Z,99912.75
2023-01-29T16:29:08.178Z,99909.75
2023-01-29T16:31:37.797Z,99912.44
2023-01-29T16:34:12.071Z,99915.97
2023-01-29T16:36:45.743Z,99911.25
2023-01-29T16:39:19.238Z,99917.94
2023-01-29T16:42:08.306Z,99921.03
2023-01-29T16:44:37.867Z,99926.00
2023-01-29T16:47:13.723Z,99928.03
2023-01-29T16:49:49.994Z,99923.13
2023-01-29T16:52:21.226Z,99936.41
2023-01-29T16:54:51.200Z,99930.00
2023-01-29T16:57:23.252Z,99939.75
2023-01-29T16:59:55.415Z,99930.19
2023-01-29T17:02:27.126Z,99931.97
2023-01-29T17:04:59.927Z,99936.28
2023-01-29T17:07:28.819Z,99934.97
2023-01-29T17:10:00.689Z,99944.13
2023-01-29T17:12:30.708Z,99950.06
2023-01-29T17:15:00.636Z,99945.97
2023-01-29T17:17:33.608Z,99951.13
2023-01-29T17:20:11.954Z,99945.38
2023-01-29T17:22:42.013Z,99949.06
2023-01-29T17:25:14.466Z,99943.56
2023-01-29T17:27:44.233Z,99942.06
2023-01-29T17:30:15.445Z,99948.16
2023-01-29T17:32:47.116Z,99948.16
2023-01-29T17:35:17.360Z,99938.22
2023-01-29T17:37:46.268Z,99942.81
2023-01-29T17:40:25.620Z,99933.97
2023-01-29T17:42:54.259Z,99933.50
2023-01-29T17:45:22.971Z,99929.53
2023-01-29T17:47:51.551Z,99926.97
2023-01-29T17:50:23.526Z,99932.03
2023-01-29T17:52:53.178Z,99930.38
2023-01-29T17:55:23.384Z,99927.38
2023-01-29T17:57:52.046Z,99930.78
2023-01-29T18:00:22.616Z,99932.19
2023-01-29T18:02:51.636Z,99940.81
2023-01-29T18:05:20.653Z,99933.09
2023-01-29T18:07:51.687Z,99934.88
2023-01-29T18:10:22.969Z,99937.56
2023-01-29T18:12:51.675Z,99930.47
2023-01-29T18:15:20.721Z,99936.41
2023-01-29T18:17:52.145Z,99934.66
2023-01-29T18:20:25.419Z,99926.84
2023-01-29T18:22:54.366Z,99935.50
2023-01-29T18:25:25.783Z,99928.03
2023-01-29T18:27:54.458Z,99926.84
2023-01-29T18:30:23.133Z,99923.81
2023-01-29T18:32:51.846Z,99921.38
2023-01-29T18:35:20.514Z,99936.34
2023-01-29T18:37:49.524Z,99934.81
2023-01-29T18:40:19.022Z,99928.28
2023-01-29T18:42:49.117Z,99925.59
2023-01-29T18:45:18.782Z,99930.28
2023-01-29T18:47:48.617Z,99923.38
2023-01-29T18:50:18.006Z,99925.25
2023-01-29T18:52:46.776Z,99916.63
2023-01-29T18:55:15.605Z,99920.00
2023-01-29T18:58:34.231Z,99912.16
2023-01-29T19:00:34.767Z,99926.53
2023-01-29T19:03:03.907Z,99923.38
2023-01-29T19:05:34.657Z,99935.66
2023-01-29T19:08:05.187Z,99924.78
2023-01-29T19:10:34.090Z,99936.72
2023-01-29T19:13:04.801Z,99929.00
2023-01-29T19:15:36.083Z,99936.94
2023-01-29T19:18:04.910Z,99937.41
2023-01-29T19:20:33.527Z,99939.41
2023-01-29T19:23:02.184Z,99942.34
2023-01-29T19:25:30.920Z,99940.34
2023-01-29T19:27:59.585Z,99942.91
2023-01-29T19:30:28.345Z,99939.78
2023-01-29T19:32:58.418Z,99942.09
2023-01-29T19:35:27.071Z,99953.56
2023-01-29T19:37:55.939Z,99951.91
2023-01-29T19:40:24.797Z,99948.66
2023-01-29T19:42:54.991Z,99956.13
2023-01-29T19:45:48.999Z,99951.91
2023-01-29T19:48:17.563Z,99961.03
2023-01-29T19:50:52.215Z,99955.75
2023-01-29T19:53:20.901Z,99959.16
2023-01-29T19:55:58.044Z,99952.38
2023-01-29T19:58:26.887Z,99953.78
2023-01-29T20:00:56.742Z,99954.84
2023-01-29T20:03:27.601Z,99960.91
2023-01-29T20:05:56.559Z,99952.84
2023-01-29T20:08:25.267Z,99950.63
2023-01-29T20:10:53.874Z,99955.63
2023-01-29T20:13:22.669Z,99952.13
2023-01-29T20:15:52.544Z,99958.00
2023-01-29T20:18:21.417Z,99960.78
2023-01-29T20:20:53.101Z,99956.34
2023-01-29T20:23:35.583Z,99953.41
2023-01-29T20:26:06.943Z,99947.91
2023-01-29T20:28:36.059Z,99948.38
2023-01-29T20:31:05.695Z,99955.59
2023-01-29T20:33:35.099Z,99944.63
2023-01-29T20:36:06.914Z,99953.03
2023-01-29T20:38:35.928Z,99945.13
2023-01-29T20:41:05.981Z,99936.13
2023-01-29T20:43:35.350Z,99936.81
2023-01-29T20:46:04.618Z,99929.91
2023-01-29T20:48:33.530Z,99920.59
2023-01-29T20:51:09.280Z,99920.94
2023-01-29T20:53:38.651Z,99913.69
2023-01-29T20:56:08.170Z,99915.34
2023-01-29T20:58:37.691Z,99908.19
2023-01-29T21:01:08.568Z,99916.50
2023-01-29T21:03:37.401Z,99900.16
2023-01-29T21:06:08.469Z,99891.41
2023-01-29T21:08:37.190Z,99879.81
2023-01-29T21:11:06.718Z,99885.66
2023-01-29T21:13:35.634Z,99874.91
2023-01-29T21:16:04.847Z,99876.16
2023-01-29T21:18:33.575Z,99874.31
2023-01-29T21:21:02.286Z,99878.06
2023-01-29T21:23:32.399Z,99877.09
2023-01-29T21:26:05.323Z,99882.59
2023-01-29T21:28:34.116Z,99878.41
2023-01-29T21:31:07.095Z,99886.78
2023-01-29T21:33:35.957Z,99895.31
2023-01-29T21:36:05.439Z,99885.50
2023-01-29T21:38:35.401Z,99884.19
2023-01-29T21:41:05.507Z,99889.91
2023-01-29T21:43:33.491Z,99888.16
2023-01-29T21:46:03.886Z,99900.56
2023-01-29T21:48:32.587Z,99897.78
2023-01-29T21:51:01.197Z,99900.22
2023-01-29T21:53:29.872Z,99889.41
2023-01-29T21:56:01.568Z,99893.13
2023-01-29T21:58:30.306Z,99885.31
2023-01-29T22:01:36.976Z,99881.25
2023-01-29T22:03:47.810Z,99884.16
2023-01-29T22:06:16.494Z,99875.78
2023-01-29T22:08:45.102Z,99889.06
2023-01-29T22:11:15.238Z,99881.59
2023-01-29T22:13:43.880Z,99887.78
2023-01-29T22:16:12.509Z,99892.91
2023-01-29T22:18:41.093Z,99897.94
2023-01-29T22:21:09.791Z,99891.28
2023-01-29T22:23:39.329Z,99886.34
2023-01-29T22:26:08.974Z,99883.22
2023-01-29T22:28:39.051Z,99878.88
2023-01-29T22:31:08.000Z,99880.16
2023-01-29T22:33:36.869Z,99873.53
2023-01-29T22:36:06.178Z,99881.41
2023-01-29T22:38:34.860Z,99885.16
2023-01-29T22:41:04.656Z,99879.13
2023-01-29T22:43:33.385Z,99863.16
2023-01-29T22:46:07.460Z,99873.88
2023-01-29T22:48:36.141Z,99861.00
2023-01-29T22:51:10.992Z,99865.56
2023-01-29T22:53:41.040Z,99849.59
2023-01-29T22:56:10.190Z,99845.97
2023-01-29T22:58:38.887Z,99841.88
2023-01-29T23:01:09.127Z,99829.91
2023-01-29T23:03:38.138Z,99832.22
2023-01-29T23:06:06.963Z,99813.69
2023-01-29T23:08:35.688Z,99811.22
2023-01-29T23:11:14.104Z,99812.38
2023-01-29T23:13:44.393Z,99801.06
2023-01-29T23:16:15.723Z,99794.41
2023-01-29T23:18:45.444Z,99793.97
2023-01-29T23:21:14.160Z,99793.09
2023-01-29T23:23:44.927Z,99782.28
2023-01-29T23:26:32.103Z,99786.44
2023-01-29T23:29:01.276Z,99795.75
2023-01-29T23:31:31.998Z,99785.38
2023-01-29T23:34:00.676Z,99785.38
2023-01-29T23:36:29.499Z,99771.06
2023-01-29T23:38:58.170Z,99760.31
2023-01-29T23:41:26.765Z,99767.78
2023-01-29T23:43:55.342Z,99775.59
2023-01-29T23:46:24.098Z,99780.34
2023-01-29T23:48:54.121Z,99779.28
2023-01-29T23:51:22.746Z,99771.03
2023-01-29T23:53:51.437Z,99756.06
2023-01-29T23:56:20.056Z,99760.50
2023-01-29T23:58:48.666Z,99750.94
